sensor_id;sensor_type;location;lat;lon;timestamp;P1;durP1;ratioP1;P2;durP2;ratioP2
55647;SDS011;45266;48.756;9.246;2022-07-29T00:00:12;6.97;;;5.97;;
55647;SDS011;45266;48.756;9.246;2022-07-29T00:01:14;7.30;;;5.90;;
55647;SDS011;45266;48.756;9.246;2022-07-29T00:02:19;6.80;;;6.00;;
55647;SDS011;45266;48.756;9.246;2022-07-29T00:03:21;6.30;;;5.75;;
55647;SDS011;45266;48.756;9.246;2022-07-29T00:04:23;5.93;;;5.32;;
55647;SDS011;45266;48.756;9.246;2022-07-29T00:05:25;6.63;;;6.03;;
55647;SDS011;45266;48.756;9.246;2022-07-29T00:06:27;6.20;;;5.70;;
55647;SDS011;45266;48.756;9.246;2022-07-29T00:07:29;6.55;;;5.95;;
55647;SDS011;45266;48.756;9.246;2022-07-29T00:08:31;6.85;;;5.80;;
55647;SDS011;45266;48.756;9.246;2022-07-29T00:09:33;5.65;;;5.20;;
55647;SDS011;45266;48.756;9.246;2022-07-29T00:10:51;8.10;;;5.40;;
55647;SDS011;45266;48.756;9.246;2022-07-29T00:11:53;6.68;;;6.10;;
55647;SDS011;45266;48.756;9.246;2022-07-29T00:12:57;6.57;;;5.97;;
55647;SDS011;45266;48.756;9.246;2022-07-29T00:13:59;6.32;;;5.75;;
55647;SDS011;45266;48.756;9.246;2022-07-29T00:15:01;5.53;;;5.10;;
55647;SDS011;45266;48.756;9.246;2022-07-29T00:16:03;6.85;;;6.20;;
55647;SDS011;45266;48.756;9.246;2022-07-29T00:17:05;6.57;;;5.82;;
55647;SDS011;45266;48.756;9.246;2022-07-29T00:18:07;6.53;;;5.93;;
55647;SDS011;45266;48.756;9.246;2022-07-29T00:19:09;6.28;;;5.68;;
55647;SDS011;45266;48.756;9.246;2022-07-29T00:20:12;6.00;;;5.45;;
55647;SDS011;45266;48.756;9.246;2022-07-29T00:21:14;6.57;;;6.07;;
55647;SDS011;45266;48.756;9.246;2022-07-29T00:22:16;6.22;;;5.50;;
55647;SDS011;45266;48.756;9.246;2022-07-29T00:23:18;7.32;;;5.53;;
55647;SDS011;45266;48.756;9.246;2022-07-29T00:24:20;6.35;;;5.78;;
55647;SDS011;45266;48.756;9.246;2022-07-29T00:25:22;8.40;;;5.50;;
55647;SDS011;45266;48.756;9.246;2022-07-29T00:26:23;6.47;;;5.97;;
55647;SDS011;45266;48.756;9.246;2022-07-29T00:27:26;6.80;;;6.10;;
55647;SDS011;45266;48.756;9.246;2022-07-29T00:28:28;6.18;;;5.68;;
55647;SDS011;45266;48.756;9.246;2022-07-29T00:29:29;7.15;;;6.05;;
55647;SDS011;45266;48.756;9.246;2022-07-29T00:30:34;8.15;;;6.20;;
55647;SDS011;45266;48.756;9.246;2022-07-29T00:31:36;8.93;;;5.72;;
55647;SDS011;45266;48.756;9.246;2022-07-29T00:32:38;8.52;;;7.32;;
55647;SDS011;45266;48.756;9.246;2022-07-29T00:33:40;7.32;;;6.63;;
55647;SDS011;45266;48.756;9.246;2022-07-29T00:34:42;7.40;;;6.63;;
55647;SDS011;45266;48.756;9.246;2022-07-29T00:36:02;7.65;;;6.68;;
55647;SDS011;45266;48.756;9.246;2022-07-29T00:37:04;6.88;;;6.28;;
55647;SDS011;45266;48.756;9.246;2022-07-29T00:38:08;8.10;;;6.60;;
55647;SDS011;45266;48.756;9.246;2022-07-29T00:39:09;6.25;;;5.65;;
55647;SDS011;45266;48.756;9.246;2022-07-29T00:40:11;6.68;;;5.85;;
55647;SDS011;45266;48.756;9.246;2022-07-29T00:41:14;6.32;;;5.70;;
55647;SDS011;45266;48.756;9.246;2022-07-29T00:42:16;7.10;;;6.18;;
55647;SDS011;45266;48.756;9.246;2022-07-29T00:43:18;10.15;;;5.88;;
55647;SDS011;45266;48.756;9.246;2022-07-29T00:44:20;7.22;;;6.53;;
55647;SDS011;45266;48.756;9.246;2022-07-29T00:45:22;6.65;;;6.05;;
55647;SDS011;45266;48.756;9.246;2022-07-29T00:46:23;6.85;;;6.15;;
55647;SDS011;45266;48.756;9.246;2022-07-29T00:47:25;6.93;;;6.32;;
55647;SDS011;45266;48.756;9.246;2022-07-29T00:48:27;6.68;;;6.18;;
55647;SDS011;45266;48.756;9.246;2022-07-29T00:49:29;6.32;;;5.72;;
55647;SDS011;45266;48.756;9.246;2022-07-29T00:50:31;6.90;;;6.30;;
55647;SDS011;45266;48.756;9.246;2022-07-29T00:51:36;7.72;;;6.53;;
55647;SDS011;45266;48.756;9.246;2022-07-29T00:52:40;8.20;;;5.97;;
55647;SDS011;45266;48.756;9.246;2022-07-29T00:53:43;6.82;;;6.22;;
55647;SDS011;45266;48.756;9.246;2022-07-29T00:54:45;6.90;;;6.20;;
55647;SDS011;45266;48.756;9.246;2022-07-29T00:55:47;6.82;;;6.22;;
55647;SDS011;45266;48.756;9.246;2022-07-29T00:56:49;7.13;;;6.43;;
55647;SDS011;45266;48.756;9.246;2022-07-29T00:57:51;6.50;;;5.90;;
55647;SDS011;45266;48.756;9.246;2022-07-29T00:58:54;8.00;;;6.72;;
55647;SDS011;45266;48.756;9.246;2022-07-29T00:59:58;8.57;;;6.10;;
55647;SDS011;45266;48.756;9.246;2022-07-29T01:01:00;7.63;;;6.97;;
55647;SDS011;45266;48.756;9.246;2022-07-29T01:02:02;6.88;;;6.28;;
55647;SDS011;45266;48.756;9.246;2022-07-29T01:03:04;8.20;;;6.13;;
55647;SDS011;45266;48.756;9.246;2022-07-29T01:04:06;8.20;;;7.10;;
55647;SDS011;45266;48.756;9.246;2022-07-29T01:05:08;6.32;;;5.72;;
55647;SDS011;45266;48.756;9.246;2022-07-29T01:06:11;6.65;;;6.05;;
55647;SDS011;45266;48.756;9.246;2022-07-29T01:07:13;7.90;;;7.00;;
55647;SDS011;45266;48.756;9.246;2022-07-29T01:08:15;7.13;;;6.53;;
55647;SDS011;45266;48.756;9.246;2022-07-29T01:09:18;6.85;;;6.25;;
55647;SDS011;45266;48.756;9.246;2022-07-29T01:10:41;7.00;;;6.30;;
55647;SDS011;45266;48.756;9.246;2022-07-29T01:11:44;6.70;;;6.10;;
55647;SDS011;45266;48.756;9.246;2022-07-29T01:12:49;5.95;;;5.43;;
55647;SDS011;45266;48.756;9.246;2022-07-29T01:13:52;7.00;;;6.40;;
55647;SDS011;45266;48.756;9.246;2022-07-29T01:14:54;6.65;;;6.05;;
55647;SDS011;45266;48.756;9.246;2022-07-29T01:15:59;6.47;;;5.85;;
55647;SDS011;45266;48.756;9.246;2022-07-29T01:17:18;8.05;;;6.38;;
55647;SDS011;45266;48.756;9.246;2022-07-29T01:18:28;6.72;;;6.07;;
55647;SDS011;45266;48.756;9.246;2022-07-29T01:20:58;7.25;;;6.55;;
55647;SDS011;45266;48.756;9.246;2022-07-29T01:25:45;6.60;;;6.03;;
55647;SDS011;45266;48.756;9.246;2022-07-29T01:29:26;9.60;;;6.38;;
55647;SDS011;45266;48.756;9.246;2022-07-29T01:30:50;7.18;;;6.53;;
55647;SDS011;45266;48.756;9.246;2022-07-29T01:32:01;6.63;;;6.13;;
55647;SDS011;45266;48.756;9.246;2022-07-29T01:33:06;7.00;;;6.30;;
55647;SDS011;45266;48.756;9.246;2022-07-29T01:34:11;7.00;;;6.40;;
55647;SDS011;45266;48.756;9.246;2022-07-29T01:35:26;6.72;;;6.13;;
55647;SDS011;45266;48.756;9.246;2022-07-29T01:36:36;6.97;;;6.28;;
55647;SDS011;45266;48.756;9.246;2022-07-29T01:39:10;7.40;;;6.50;;
55647;SDS011;45266;48.756;9.246;2022-07-29T01:41:23;6.80;;;6.07;;
55647;SDS011;45266;48.756;9.246;2022-07-29T01:43:42;6.90;;;6.13;;
55647;SDS011;45266;48.756;9.246;2022-07-29T01:46:01;7.13;;;6.45;;
55647;SDS011;45266;48.756;9.246;2022-07-29T01:47:10;7.32;;;6.47;;
55647;SDS011;45266;48.756;9.246;2022-07-29T01:48:23;6.32;;;5.80;;
55647;SDS011;45266;48.756;9.246;2022-07-29T01:49:29;6.72;;;6.18;;
55647;SDS011;45266;48.756;9.246;2022-07-29T01:50:38;7.00;;;6.47;;
55647;SDS011;45266;48.756;9.246;2022-07-29T01:51:53;6.25;;;5.75;;
55647;SDS011;45266;48.756;9.246;2022-07-29T01:53:00;6.65;;;6.05;;
55647;SDS011;45266;48.756;9.246;2022-07-29T01:54:08;8.10;;;5.97;;
55647;SDS011;45266;48.756;9.246;2022-07-29T01:55:34;8.30;;;5.75;;
55647;SDS011;45266;48.756;9.246;2022-07-29T01:56:39;6.68;;;6.03;;
55647;SDS011;45266;48.756;9.246;2022-07-29T01:57:46;6.90;;;6.28;;
55647;SDS011;45266;48.756;9.246;2022-07-29T01:58:50;6.65;;;6.03;;
55647;SDS011;45266;48.756;9.246;2022-07-29T01:59:56;6.68;;;6.00;;
55647;SDS011;45266;48.756;9.246;2022-07-29T02:00:59;7.30;;;6.63;;
55647;SDS011;45266;48.756;9.246;2022-07-29T02:02:01;8.65;;;5.90;;
55647;SDS011;45266;48.756;9.246;2022-07-29T02:03:07;6.55;;;5.95;;
55647;SDS011;45266;48.756;9.246;2022-07-29T02:04:12;6.03;;;5.43;;
55647;SDS011;45266;48.756;9.246;2022-07-29T02:05:29;6.88;;;5.93;;
55647;SDS011;45266;48.756;9.246;2022-07-29T02:06:33;6.93;;;6.15;;
55647;SDS011;45266;48.756;9.246;2022-07-29T02:07:38;6.22;;;5.63;;
55647;SDS011;45266;48.756;9.246;2022-07-29T02:08:41;6.47;;;5.90;;
55647;SDS011;45266;48.756;9.246;2022-07-29T02:09:45;7.20;;;6.50;;
55647;SDS011;45266;48.756;9.246;2022-07-29T02:10:50;6.40;;;5.85;;
55647;SDS011;45266;48.756;9.246;2022-07-29T02:11:54;6.55;;;5.63;;
55647;SDS011;45266;48.756;9.246;2022-07-29T02:12:58;9.18;;;6.45;;
55647;SDS011;45266;48.756;9.246;2022-07-29T02:14:01;6.47;;;5.88;;
55647;SDS011;45266;48.756;9.246;2022-07-29T02:15:06;5.45;;;4.95;;
55647;SDS011;45266;48.756;9.246;2022-07-29T02:16:11;7.18;;;6.47;;
55647;SDS011;45266;48.756;9.246;2022-07-29T02:17:15;7.40;;;6.50;;
55647;SDS011;45266;48.756;9.246;2022-07-29T02:18:25;6.93;;;5.82;;
55647;SDS011;45266;48.756;9.246;2022-07-29T02:19:32;6.25;;;5.70;;
55647;SDS011;45266;48.756;9.246;2022-07-29T02:20:34;6.47;;;5.88;;
55647;SDS011;45266;48.756;9.246;2022-07-29T02:21:37;6.35;;;5.85;;
55647;SDS011;45266;48.756;9.246;2022-07-29T02:22:41;5.30;;;4.90;;
55647;SDS011;45266;48.756;9.246;2022-07-29T02:23:45;6.65;;;5.90;;
55647;SDS011;45266;48.756;9.246;2022-07-29T02:24:51;7.15;;;6.47;;
55647;SDS011;45266;48.756;9.246;2022-07-29T02:25:55;6.38;;;5.78;;
55647;SDS011;45266;48.756;9.246;2022-07-29T02:26:58;6.20;;;5.70;;
55647;SDS011;45266;48.756;9.246;2022-07-29T02:28:02;15.80;;;12.52;;
55647;SDS011;45266;48.756;9.246;2022-07-29T02:29:04;13.10;;;11.38;;
55647;SDS011;45266;48.756;9.246;2022-07-29T02:30:09;10.40;;;8.90;;
55647;SDS011;45266;48.756;9.246;2022-07-29T02:31:13;8.70;;;7.10;;
55647;SDS011;45266;48.756;9.246;2022-07-29T02:32:16;6.57;;;5.95;;
55647;SDS011;45266;48.756;9.246;2022-07-29T02:33:19;6.32;;;5.80;;
55647;SDS011;45266;48.756;9.246;2022-07-29T02:34:21;6.15;;;5.60;;
55647;SDS011;45266;48.756;9.246;2022-07-29T02:35:25;6.38;;;5.82;;
55647;SDS011;45266;48.756;9.246;2022-07-29T02:36:34;6.32;;;5.45;;
55647;SDS011;45266;48.756;9.246;2022-07-29T02:37:37;6.10;;;5.50;;
55647;SDS011;45266;48.756;9.246;2022-07-29T02:38:40;6.72;;;5.65;;
55647;SDS011;45266;48.756;9.246;2022-07-29T02:39:53;6.35;;;5.82;;
55647;SDS011;45266;48.756;9.246;2022-07-29T02:40:56;6.50;;;5.90;;
55647;SDS011;45266;48.756;9.246;2022-07-29T02:42:03;6.00;;;5.50;;
55647;SDS011;45266;48.756;9.246;2022-07-29T02:43:09;5.90;;;5.40;;
55647;SDS011;45266;48.756;9.246;2022-07-29T02:44:12;6.10;;;5.50;;
55647;SDS011;45266;48.756;9.246;2022-07-29T02:45:20;6.45;;;5.40;;
55647;SDS011;45266;48.756;9.246;2022-07-29T02:46:32;6.82;;;5.28;;
55647;SDS011;45266;48.756;9.246;2022-07-29T02:47:39;6.30;;;5.70;;
55647;SDS011;45266;48.756;9.246;2022-07-29T02:48:51;6.00;;;5.40;;
55647;SDS011;45266;48.756;9.246;2022-07-29T02:50:27;6.05;;;5.55;;
55647;SDS011;45266;48.756;9.246;2022-07-29T02:51:42;5.50;;;5.00;;
55647;SDS011;45266;48.756;9.246;2022-07-29T02:52:52;7.35;;;5.47;;
55647;SDS011;45266;48.756;9.246;2022-07-29T02:54:01;5.45;;;5.05;;
55647;SDS011;45266;48.756;9.246;2022-07-29T02:56:16;6.28;;;5.50;;
55647;SDS011;45266;48.756;9.246;2022-07-29T02:57:22;7.72;;;5.35;;
55647;SDS011;45266;48.756;9.246;2022-07-29T02:59:04;7.57;;;5.70;;
55647;SDS011;45266;48.756;9.246;2022-07-29T03:00:10;5.70;;;5.20;;
55647;SDS011;45266;48.756;9.246;2022-07-29T03:01:16;5.80;;;4.85;;
55647;SDS011;45266;48.756;9.246;2022-07-29T03:02:22;5.50;;;5.00;;
55647;SDS011;45266;48.756;9.246;2022-07-29T03:03:28;5.63;;;5.13;;
55647;SDS011;45266;48.756;9.246;2022-07-29T03:04:33;5.65;;;5.15;;
55647;SDS011;45266;48.756;9.246;2022-07-29T03:05:36;6.95;;;5.00;;
55647;SDS011;45266;48.756;9.246;2022-07-29T03:06:39;6.28;;;5.68;;
55647;SDS011;45266;48.756;9.246;2022-07-29T03:07:43;5.60;;;4.95;;
55647;SDS011;45266;48.756;9.246;2022-07-29T03:08:48;6.55;;;4.47;;
55647;SDS011;45266;48.756;9.246;2022-07-29T03:09:51;7.25;;;4.78;;
55647;SDS011;45266;48.756;9.246;2022-07-29T03:10:54;5.85;;;5.28;;
55647;SDS011;45266;48.756;9.246;2022-07-29T03:11:57;5.35;;;4.93;;
55647;SDS011;45266;48.756;9.246;2022-07-29T03:12:59;5.50;;;4.97;;
55647;SDS011;45266;48.756;9.246;2022-07-29T03:14:02;5.03;;;4.63;;
55647;SDS011;45266;48.756;9.246;2022-07-29T03:15:05;5.18;;;4.68;;
55647;SDS011;45266;48.756;9.246;2022-07-29T03:16:09;6.15;;;5.15;;
55647;SDS011;45266;48.756;9.246;2022-07-29T03:17:12;5.28;;;4.78;;
55647;SDS011;45266;48.756;9.246;2022-07-29T03:18:14;5.35;;;4.90;;
55647;SDS011;45266;48.756;9.246;2022-07-29T03:19:16;5.68;;;5.28;;
55647;SDS011;45266;48.756;9.246;2022-07-29T03:20:19;9.07;;;5.35;;
55647;SDS011;45266;48.756;9.246;2022-07-29T03:21:21;5.68;;;5.18;;
55647;SDS011;45266;48.756;9.246;2022-07-29T03:22:23;5.13;;;4.63;;
55647;SDS011;45266;48.756;9.246;2022-07-29T03:23:25;5.05;;;4.65;;
55647;SDS011;45266;48.756;9.246;2022-07-29T03:24:35;6.15;;;5.57;;
55647;SDS011;45266;48.756;9.246;2022-07-29T03:25:41;5.40;;;4.95;;
55647;SDS011;45266;48.756;9.246;2022-07-29T03:26:44;5.47;;;4.97;;
55647;SDS011;45266;48.756;9.246;2022-07-29T03:27:46;6.55;;;4.82;;
55647;SDS011;45266;48.756;9.246;2022-07-29T03:28:48;5.10;;;4.70;;
55647;SDS011;45266;48.756;9.246;2022-07-29T03:29:50;5.47;;;4.97;;
55647;SDS011;45266;48.756;9.246;2022-07-29T03:30:53;5.68;;;5.15;;
55647;SDS011;45266;48.756;9.246;2022-07-29T03:31:55;5.40;;;5.00;;
55647;SDS011;45266;48.756;9.246;2022-07-29T03:32:57;5.50;;;5.10;;
55647;SDS011;45266;48.756;9.246;2022-07-29T03:33:59;5.18;;;4.78;;
55647;SDS011;45266;48.756;9.246;2022-07-29T03:35:01;5.85;;;5.25;;
55647;SDS011;45266;48.756;9.246;2022-07-29T03:36:03;5.28;;;4.88;;
55647;SDS011;45266;48.756;9.246;2022-07-29T03:37:05;5.57;;;5.15;;
55647;SDS011;45266;48.756;9.246;2022-07-29T03:38:07;6.15;;;5.18;;
55647;SDS011;45266;48.756;9.246;2022-07-29T03:39:09;5.45;;;4.93;;
55647;SDS011;45266;48.756;9.246;2022-07-29T03:40:15;5.53;;;5.13;;
55647;SDS011;45266;48.756;9.246;2022-07-29T03:41:22;5.30;;;4.88;;
55647;SDS011;45266;48.756;9.246;2022-07-29T03:42:26;5.57;;;5.07;;
55647;SDS011;45266;48.756;9.246;2022-07-29T03:43:35;5.72;;;5.22;;
55647;SDS011;45266;48.756;9.246;2022-07-29T03:44:49;5.28;;;4.78;;
55647;SDS011;45266;48.756;9.246;2022-07-29T03:45:53;5.28;;;4.88;;
55647;SDS011;45266;48.756;9.246;2022-07-29T03:46:57;5.93;;;5.40;;
55647;SDS011;45266;48.756;9.246;2022-07-29T03:48:07;5.50;;;5.00;;
55647;SDS011;45266;48.756;9.246;2022-07-29T03:49:11;7.82;;;5.20;;
55647;SDS011;45266;48.756;9.246;2022-07-29T03:50:16;6.28;;;5.68;;
55647;SDS011;45266;48.756;9.246;2022-07-29T03:51:20;6.70;;;5.18;;
55647;SDS011;45266;48.756;9.246;2022-07-29T03:52:34;5.90;;;5.40;;
55647;SDS011;45266;48.756;9.246;2022-07-29T03:53:36;7.22;;;5.45;;
55647;SDS011;45266;48.756;9.246;2022-07-29T03:54:39;6.25;;;5.65;;
55647;SDS011;45266;48.756;9.246;2022-07-29T03:55:42;6.07;;;5.45;;
55647;SDS011;45266;48.756;9.246;2022-07-29T03:56:46;5.90;;;5.40;;
55647;SDS011;45266;48.756;9.246;2022-07-29T03:57:51;5.15;;;4.65;;
55647;SDS011;45266;48.756;9.246;2022-07-29T03:58:53;6.40;;;5.78;;
55647;SDS011;45266;48.756;9.246;2022-07-29T03:59:56;5.78;;;5.25;;
55647;SDS011;45266;48.756;9.246;2022-07-29T04:00:59;6.13;;;5.53;;
55647;SDS011;45266;48.756;9.246;2022-07-29T04:02:01;5.53;;;5.00;;
55647;SDS011;45266;48.756;9.246;2022-07-29T04:03:04;7.55;;;5.70;;
55647;SDS011;45266;48.756;9.246;2022-07-29T04:04:12;5.50;;;5.00;;
55647;SDS011;45266;48.756;9.246;2022-07-29T04:05:14;5.38;;;4.97;;
55647;SDS011;45266;48.756;9.246;2022-07-29T04:06:17;5.80;;;5.30;;
55647;SDS011;45266;48.756;9.246;2022-07-29T04:07:19;6.20;;;5.60;;
55647;SDS011;45266;48.756;9.246;2022-07-29T04:08:21;5.03;;;4.63;;
55647;SDS011;45266;48.756;9.246;2022-07-29T04:09:22;5.80;;;5.28;;
55647;SDS011;45266;48.756;9.246;2022-07-29T04:10:24;6.38;;;5.00;;
55647;SDS011;45266;48.756;9.246;2022-07-29T04:11:32;8.82;;;5.68;;
55647;SDS011;45266;48.756;9.246;2022-07-29T04:12:54;7.82;;;5.53;;
55647;SDS011;45266;48.756;9.246;2022-07-29T04:13:56;5.25;;;4.75;;
55647;SDS011;45266;48.756;9.246;2022-07-29T04:14:58;5.22;;;4.78;;
55647;SDS011;45266;48.756;9.246;2022-07-29T04:15:59;6.30;;;5.30;;
55647;SDS011;45266;48.756;9.246;2022-07-29T04:17:02;6.07;;;5.47;;
55647;SDS011;45266;48.756;9.246;2022-07-29T04:18:05;5.88;;;4.45;;
55647;SDS011;45266;48.756;9.246;2022-07-29T04:19:07;5.43;;;4.90;;
55647;SDS011;45266;48.756;9.246;2022-07-29T04:20:09;6.60;;;4.75;;
55647;SDS011;45266;48.756;9.246;2022-07-29T04:21:14;6.05;;;5.40;;
55647;SDS011;45266;48.756;9.246;2022-07-29T04:22:15;5.60;;;5.10;;
55647;SDS011;45266;48.756;9.246;2022-07-29T04:23:17;6.47;;;5.45;;
55647;SDS011;45266;48.756;9.246;2022-07-29T04:24:19;5.10;;;4.70;;
55647;SDS011;45266;48.756;9.246;2022-07-29T04:25:21;5.20;;;4.70;;
55647;SDS011;45266;48.756;9.246;2022-07-29T04:26:23;5.70;;;5.20;;
55647;SDS011;45266;48.756;9.246;2022-07-29T04:27:24;5.03;;;4.68;;
55647;SDS011;45266;48.756;9.246;2022-07-29T04:28:26;5.90;;;5.35;;
55647;SDS011;45266;48.756;9.246;2022-07-29T04:29:28;5.80;;;5.15;;
55647;SDS011;45266;48.756;9.246;2022-07-29T04:30:30;6.07;;;5.43;;
55647;SDS011;45266;48.756;9.246;2022-07-29T04:31:33;5.97;;;5.28;;
55647;SDS011;45266;48.756;9.246;2022-07-29T04:32:35;5.68;;;5.18;;
55647;SDS011;45266;48.756;9.246;2022-07-29T04:33:37;6.57;;;5.80;;
55647;SDS011;45266;48.756;9.246;2022-07-29T04:34:39;5.72;;;5.22;;
55647;SDS011;45266;48.756;9.246;2022-07-29T04:35:41;6.70;;;5.30;;
55647;SDS011;45266;48.756;9.246;2022-07-29T04:36:50;5.80;;;5.30;;
55647;SDS011;45266;48.756;9.246;2022-07-29T04:37:52;6.30;;;5.40;;
55647;SDS011;45266;48.756;9.246;2022-07-29T04:38:54;6.80;;;5.80;;
55647;SDS011;45266;48.756;9.246;2022-07-29T04:39:56;5.97;;;5.38;;
55647;SDS011;45266;48.756;9.246;2022-07-29T04:40:58;5.65;;;5.00;;
55647;SDS011;45266;48.756;9.246;2022-07-29T04:42:00;5.40;;;5.00;;
55647;SDS011;45266;48.756;9.246;2022-07-29T04:43:02;6.70;;;5.32;;
55647;SDS011;45266;48.756;9.246;2022-07-29T04:44:06;5.95;;;5.45;;
55647;SDS011;45266;48.756;9.246;2022-07-29T04:45:09;5.65;;;5.20;;
55647;SDS011;45266;48.756;9.246;2022-07-29T04:46:10;6.40;;;5.80;;
55647;SDS011;45266;48.756;9.246;2022-07-29T04:47:12;6.38;;;5.75;;
55647;SDS011;45266;48.756;9.246;2022-07-29T04:48:14;6.22;;;5.72;;
55647;SDS011;45266;48.756;9.246;2022-07-29T04:49:16;5.72;;;5.15;;
55647;SDS011;45266;48.756;9.246;2022-07-29T04:50:18;5.80;;;5.28;;
55647;SDS011;45266;48.756;9.246;2022-07-29T04:51:19;6.03;;;5.43;;
55647;SDS011;45266;48.756;9.246;2022-07-29T04:52:21;6.30;;;5.70;;
55647;SDS011;45266;48.756;9.246;2022-07-29T04:53:24;6.20;;;5.70;;
55647;SDS011;45266;48.756;9.246;2022-07-29T04:54:26;6.18;;;5.57;;
55647;SDS011;45266;48.756;9.246;2022-07-29T04:55:28;7.53;;;5.78;;
55647;SDS011;45266;48.756;9.246;2022-07-29T04:56:29;6.15;;;5.55;;
55647;SDS011;45266;48.756;9.246;2022-07-29T04:57:31;5.63;;;5.13;;
55647;SDS011;45266;48.756;9.246;2022-07-29T04:58:36;5.78;;;5.28;;
55647;SDS011;45266;48.756;9.246;2022-07-29T04:59:38;5.70;;;5.20;;
55647;SDS011;45266;48.756;9.246;2022-07-29T05:00:40;6.47;;;5.88;;
55647;SDS011;45266;48.756;9.246;2022-07-29T05:01:42;6.55;;;5.95;;
55647;SDS011;45266;48.756;9.246;2022-07-29T05:02:44;6.00;;;5.50;;
55647;SDS011;45266;48.756;9.246;2022-07-29T05:03:45;5.65;;;5.15;;
55647;SDS011;45266;48.756;9.246;2022-07-29T05:04:47;5.68;;;5.18;;
55647;SDS011;45266;48.756;9.246;2022-07-29T05:05:49;6.28;;;5.32;;
55647;SDS011;45266;48.756;9.246;2022-07-29T05:06:51;5.55;;;5.05;;
55647;SDS011;45266;48.756;9.246;2022-07-29T05:07:53;5.75;;;5.25;;
55647;SDS011;45266;48.756;9.246;2022-07-29T05:08:55;5.82;;;5.30;;
55647;SDS011;45266;48.756;9.246;2022-07-29T05:09:57;5.97;;;5.38;;
55647;SDS011;45266;48.756;9.246;2022-07-29T05:10:58;5.57;;;5.07;;
55647;SDS011;45266;48.756;9.246;2022-07-29T05:12:12;6.13;;;5.43;;
55647;SDS011;45266;48.756;9.246;2022-07-29T05:13:14;6.20;;;5.70;;
55647;SDS011;45266;48.756;9.246;2022-07-29T05:14:17;6.35;;;5.75;;
55647;SDS011;45266;48.756;9.246;2022-07-29T05:15:19;5.53;;;5.13;;
55647;SDS011;45266;48.756;9.246;2022-07-29T05:16:21;6.53;;;5.93;;
55647;SDS011;45266;48.756;9.246;2022-07-29T05:17:23;6.03;;;5.53;;
55647;SDS011;45266;48.756;9.246;2022-07-29T05:18:25;5.82;;;5.28;;
55647;SDS011;45266;48.756;9.246;2022-07-29T05:19:27;5.80;;;5.15;;
55647;SDS011;45266;48.756;9.246;2022-07-29T05:20:29;5.88;;;5.28;;
55647;SDS011;45266;48.756;9.246;2022-07-29T05:21:31;6.30;;;5.80;;
55647;SDS011;45266;48.756;9.246;2022-07-29T05:22:33;5.97;;;5.47;;
55647;SDS011;45266;48.756;9.246;2022-07-29T05:23:35;6.32;;;5.82;;
55647;SDS011;45266;48.756;9.246;2022-07-29T05:24:36;7.40;;;6.70;;
55647;SDS011;45266;48.756;9.246;2022-07-29T05:25:38;7.75;;;7.05;;
55647;SDS011;45266;48.756;9.246;2022-07-29T05:26:44;7.30;;;6.60;;
55647;SDS011;45266;48.756;9.246;2022-07-29T05:27:45;7.15;;;6.50;;
55647;SDS011;45266;48.756;9.246;2022-07-29T05:28:51;6.88;;;6.25;;
55647;SDS011;45266;48.756;9.246;2022-07-29T05:29:53;11.50;;;7.72;;
55647;SDS011;45266;48.756;9.246;2022-07-29T05:30:54;7.45;;;6.63;;
55647;SDS011;45266;48.756;9.246;2022-07-29T05:31:57;8.80;;;6.82;;
55647;SDS011;45266;48.756;9.246;2022-07-29T05:33:00;7.50;;;6.68;;
55647;SDS011;45266;48.756;9.246;2022-07-29T05:34:02;6.40;;;5.80;;
55647;SDS011;45266;48.756;9.246;2022-07-29T05:35:04;9.00;;;7.00;;
55647;SDS011;45266;48.756;9.246;2022-07-29T05:36:07;7.65;;;6.13;;
55647;SDS011;45266;48.756;9.246;2022-07-29T05:37:09;7.05;;;6.38;;
55647;SDS011;45266;48.756;9.246;2022-07-29T05:38:11;7.55;;;6.50;;
55647;SDS011;45266;48.756;9.246;2022-07-29T05:39:13;7.00;;;6.40;;
55647;SDS011;45266;48.756;9.246;2022-07-29T05:40:15;7.03;;;6.40;;
55647;SDS011;45266;48.756;9.246;2022-07-29T05:41:17;7.32;;;6.68;;
55647;SDS011;45266;48.756;9.246;2022-07-29T05:42:20;7.65;;;7.03;;
55647;SDS011;45266;48.756;9.246;2022-07-29T05:43:21;7.82;;;7.10;;
55647;SDS011;45266;48.756;9.246;2022-07-29T05:44:24;8.43;;;7.50;;
55647;SDS011;45266;48.756;9.246;2022-07-29T05:45:25;7.60;;;6.90;;
55647;SDS011;45266;48.756;9.246;2022-07-29T05:46:28;7.45;;;6.82;;
55647;SDS011;45266;48.756;9.246;2022-07-29T05:47:30;7.95;;;7.18;;
55647;SDS011;45266;48.756;9.246;2022-07-29T05:48:32;7.20;;;6.50;;
55647;SDS011;45266;48.756;9.246;2022-07-29T05:49:34;7.20;;;6.50;;
55647;SDS011;45266;48.756;9.246;2022-07-29T05:50:35;8.25;;;7.22;;
55647;SDS011;45266;48.756;9.246;2022-07-29T05:51:44;7.90;;;7.20;;
55647;SDS011;45266;48.756;9.246;2022-07-29T05:52:47;7.32;;;6.63;;
55647;SDS011;45266;48.756;9.246;2022-07-29T05:53:49;8.48;;;6.90;;
55647;SDS011;45266;48.756;9.246;2022-07-29T05:54:51;8.60;;;6.72;;
55647;SDS011;45266;48.756;9.246;2022-07-29T05:55:53;7.00;;;6.38;;
55647;SDS011;45266;48.756;9.246;2022-07-29T05:56:55;8.93;;;7.10;;
55647;SDS011;45266;48.756;9.246;2022-07-29T05:57:58;7.03;;;6.32;;
55647;SDS011;45266;48.756;9.246;2022-07-29T05:59:00;6.72;;;6.13;;
55647;SDS011;45266;48.756;9.246;2022-07-29T06:00:02;7.60;;;6.65;;
55647;SDS011;45266;48.756;9.246;2022-07-29T06:01:04;6.93;;;6.32;;
55647;SDS011;45266;48.756;9.246;2022-07-29T06:02:06;7.43;;;6.72;;
55647;SDS011;45266;48.756;9.246;2022-07-29T06:03:08;7.13;;;6.40;;
55647;SDS011;45266;48.756;9.246;2022-07-29T06:04:10;8.35;;;6.55;;
55647;SDS011;45266;48.756;9.246;2022-07-29T06:05:12;6.80;;;6.20;;
55647;SDS011;45266;48.756;9.246;2022-07-29T06:06:17;7.63;;;5.97;;
55647;SDS011;45266;48.756;9.246;2022-07-29T06:07:19;11.07;;;6.68;;
55647;SDS011;45266;48.756;9.246;2022-07-29T06:08:21;6.20;;;5.68;;
55647;SDS011;45266;48.756;9.246;2022-07-29T06:09:23;7.70;;;7.00;;
55647;SDS011;45266;48.756;9.246;2022-07-29T06:10:24;6.10;;;5.47;;
55647;SDS011;45266;48.756;9.246;2022-07-29T06:11:27;6.80;;;6.20;;
55647;SDS011;45266;48.756;9.246;2022-07-29T06:12:29;7.45;;;5.93;;
55647;SDS011;45266;48.756;9.246;2022-07-29T06:13:31;6.43;;;5.82;;
55647;SDS011;45266;48.756;9.246;2022-07-29T06:14:33;6.40;;;5.57;;
55647;SDS011;45266;48.756;9.246;2022-07-29T06:15:36;5.88;;;5.38;;
55647;SDS011;45266;48.756;9.246;2022-07-29T06:16:37;6.05;;;5.45;;
55647;SDS011;45266;48.756;9.246;2022-07-29T06:17:39;5.78;;;5.28;;
55647;SDS011;45266;48.756;9.246;2022-07-29T06:19:01;6.25;;;4.97;;
55647;SDS011;45266;48.756;9.246;2022-07-29T06:20:03;4.88;;;4.40;;
55647;SDS011;45266;48.756;9.246;2022-07-29T06:21:08;6.30;;;4.22;;
55647;SDS011;45266;48.756;9.246;2022-07-29T06:22:10;3.70;;;3.10;;
55647;SDS011;45266;48.756;9.246;2022-07-29T06:23:12;5.47;;;4.28;;
55647;SDS011;45266;48.756;9.246;2022-07-29T06:24:14;4.00;;;3.60;;
55647;SDS011;45266;48.756;9.246;2022-07-29T06:25:17;3.75;;;3.08;;
55647;SDS011;45266;48.756;9.246;2022-07-29T06:26:20;4.88;;;2.65;;
55647;SDS011;45266;48.756;9.246;2022-07-29T06:27:31;3.58;;;2.92;;
55647;SDS011;45266;48.756;9.246;2022-07-29T06:28:34;3.30;;;2.90;;
55647;SDS011;45266;48.756;9.246;2022-07-29T06:29:35;3.55;;;3.05;;
55647;SDS011;45266;48.756;9.246;2022-07-29T06:30:38;3.88;;;3.58;;
55647;SDS011;45266;48.756;9.246;2022-07-29T06:31:40;4.00;;;3.58;;
55647;SDS011;45266;48.756;9.246;2022-07-29T06:32:42;7.10;;;4.47;;
55647;SDS011;45266;48.756;9.246;2022-07-29T06:33:44;4.53;;;3.88;;
55647;SDS011;45266;48.756;9.246;2022-07-29T06:34:45;4.38;;;3.47;;
55647;SDS011;45266;48.756;9.246;2022-07-29T06:35:49;4.18;;;3.08;;
55647;SDS011;45266;48.756;9.246;2022-07-29T06:36:55;3.10;;;2.80;;
55647;SDS011;45266;48.756;9.246;2022-07-29T06:37:57;3.53;;;2.80;;
55647;SDS011;45266;48.756;9.246;2022-07-29T06:39:00;2.75;;;2.53;;
55647;SDS011;45266;48.756;9.246;2022-07-29T06:40:04;3.13;;;2.83;;